sensor_id;sensor_type;location;lat;lon;timestamp;temperature;humidity
21312;DHT22;18076;52.154;10.570;2023-01-16T00:02:14;5.50;99.90
21312;DHT22;18076;52.154;10.570;2023-01-16T00:04:40;5.50;99.90
21312;DHT22;18076;52.154;10.570;2023-01-16T00:07:05;5.50;99.90
21312;DHT22;18076;52.154;10.570;2023-01-16T00:09:31;5.50;99.90
21312;DHT22;18076;52.154;10.570;2023-01-16T00:11:57;5.40;99.90
21312;DHT22;18076;52.154;10.570;2023-01-16T00:14:22;5.50;99.90
21312;DHT22;18076;52.154;10.570;2023-01-16T00:16:48;5.40;99.90
21312;DHT22;18076;52.154;10.570;2023-01-16T00:19:13;5.40;99.90
21312;DHT22;18076;52.154;10.570;2023-01-16T00:21:39;5.40;99.90
21312;DHT22;18076;52.154;10.570;2023-01-16T00:24:05;5.50;99.90
21312;DHT22;18076;52.154;10.570;2023-01-16T00:26:31;5.40;99.90
21312;DHT22;18076;52.154;10.570;2023-01-16T00:28:57;5.40;99.90
21312;DHT22;18076;52.154;10.570;2023-01-16T00:31:23;5.40;99.90
21312;DHT22;18076;52.154;10.570;2023-01-16T00:33:50;5.30;99.90
21312;DHT22;18076;52.154;10.570;2023-01-16T00:36:16;5.30;99.90
21312;DHT22;18076;52.154;10.570;2023-01-16T00:38:41;5.30;99.90
21312;DHT22;18076;52.154;10.570;2023-01-16T00:41:07;5.30;99.90
21312;DHT22;18076;52.154;10.570;2023-01-16T00:43:32;5.30;99.90
21312;DHT22;18076;52.154;10.570;2023-01-16T00:45:58;5.30;99.90
21312;DHT22;18076;52.154;10.570;2023-01-16T00:48:23;5.30;99.90
21312;DHT22;18076;52.154;10.570;2023-01-16T00:50:49;5.40;99.90
21312;DHT22;18076;52.154;10.570;2023-01-16T00:53:14;5.40;99.90
21312;DHT22;18076;52.154;10.570;2023-01-16T00:55:40;5.50;99.90
21312;DHT22;18076;52.154;10.570;2023-01-16T00:58:07;5.50;99.90
21312;DHT22;18076;52.154;10.570;2023-01-16T01:00:33;5.50;99.90
21312;DHT22;18076;52.154;10.570;2023-01-16T01:02:58;5.50;99.90
21312;DHT22;18076;52.154;10.570;2023-01-16T01:05:24;5.50;99.90
21312;DHT22;18076;52.154;10.570;2023-01-16T01:07:49;5.60;99.90
21312;DHT22;18076;52.154;10.570;2023-01-16T01:10:15;5.60;99.90
21312;DHT22;18076;52.154;10.570;2023-01-16T01:12:40;5.60;99.90
21312;DHT22;18076;52.154;10.570;2023-01-16T01:15:06;5.60;99.90
21312;DHT22;18076;52.154;10.570;2023-01-16T01:17:31;5.70;99.90
21312;DHT22;18076;52.154;10.570;2023-01-16T01:19:57;5.60;99.90
21312;DHT22;18076;52.154;10.570;2023-01-16T01:22:23;5.60;99.90
21312;DHT22;18076;52.154;10.570;2023-01-16T01:24:48;5.70;99.90
21312;DHT22;18076;52.154;10.570;2023-01-16T01:27:15;5.60;99.90
21312;DHT22;18076;52.154;10.570;2023-01-16T01:29:41;5.60;99.90
21312;DHT22;18076;52.154;10.570;2023-01-16T01:32:07;5.60;99.90
21312;DHT22;18076;52.154;10.570;2023-01-16T01:34:33;5.60;99.90
21312;DHT22;18076;52.154;10.570;2023-01-16T01:37:03;5.60;99.90
21312;DHT22;18076;52.154;10.570;2023-01-16T01:39:29;5.60;99.90
21312;DHT22;18076;52.154;10.570;2023-01-16T01:41:55;5.60;99.90
21312;DHT22;18076;52.154;10.570;2023-01-16T01:44:48;5.60;99.90
21312;DHT22;18076;52.154;10.570;2023-01-16T01:47:14;5.70;99.90
21312;DHT22;18076;52.154;10.570;2023-01-16T01:49:40;5.60;99.90
21312;DHT22;18076;52.154;10.570;2023-01-16T01:52:05;5.60;99.90
21312;DHT22;18076;52.154;10.570;2023-01-16T01:54:36;5.60;99.90
21312;DHT22;18076;52.154;10.570;2023-01-16T01:57:07;5.60;99.90
21312;DHT22;18076;52.154;10.570;2023-01-16T01:59:36;5.50;99.90
21312;DHT22;18076;52.154;10.570;2023-01-16T02:02:03;5.50;99.90
21312;DHT22;18076;52.154;10.570;2023-01-16T02:04:30;5.50;99.90
21312;DHT22;18076;52.154;10.570;2023-01-16T02:06:59;5.50;99.90
21312;DHT22;18076;52.154;10.570;2023-01-16T02:09:26;5.50;99.90
21312;DHT22;18076;52.154;10.570;2023-01-16T02:11:56;5.50;99.90
21312;DHT22;18076;52.154;10.570;2023-01-16T02:14:23;5.50;99.90
21312;DHT22;18076;52.154;10.570;2023-01-16T02:16:56;5.50;99.90
21312;DHT22;18076;52.154;10.570;2023-01-16T02:19:43;5.50;99.90
21312;DHT22;18076;52.154;10.570;2023-01-16T02:22:17;5.60;99.90
21312;DHT22;18076;52.154;10.570;2023-01-16T02:29:52;5.70;99.90
21312;DHT22;18076;52.154;10.570;2023-01-16T02:37:48;5.60;99.90
21312;DHT22;18076;52.154;10.570;2023-01-16T02:43:04;5.60;99.90
21312;DHT22;18076;52.154;10.570;2023-01-16T02:45:37;5.50;99.90
21312;DHT22;18076;52.154;10.570;2023-01-16T02:55:50;5.40;99.90
21312;DHT22;18076;52.154;10.570;2023-01-16T02:58:17;5.30;99.90
21312;DHT22;18076;52.154;10.570;2023-01-16T03:00:50;5.30;99.90
21312;DHT22;18076;52.154;10.570;2023-01-16T03:11:30;5.10;99.90
21312;DHT22;18076;52.154;10.570;2023-01-16T03:19:26;5.10;99.90
21312;DHT22;18076;52.154;10.570;2023-01-16T03:24:30;5.00;99.90
21312;DHT22;18076;52.154;10.570;2023-01-16T03:29:56;4.80;99.90
21312;DHT22;18076;52.154;10.570;2023-01-16T03:34:53;4.60;99.90
21312;DHT22;18076;52.154;10.570;2023-01-16T03:37:34;4.50;99.90
21312;DHT22;18076;52.154;10.570;2023-01-16T03:40:07;4.40;99.90
21312;DHT22;18076;52.154;10.570;2023-01-16T03:42:38;4.40;99.90
21312;DHT22;18076;52.154;10.570;2023-01-16T03:45:06;4.40;99.90
21312;DHT22;18076;52.154;10.570;2023-01-16T03:47:36;4.40;99.90
21312;DHT22;18076;52.154;10.570;2023-01-16T03:50:05;4.50;99.90
21312;DHT22;18076;52.154;10.570;2023-01-16T03:52:34;4.50;99.90
21312;DHT22;18076;52.154;10.570;2023-01-16T03:55:17;4.60;99.90
21312;DHT22;18076;52.154;10.570;2023-01-16T03:57:47;4.60;99.90
21312;DHT22;18076;52.154;10.570;2023-01-16T04:00:15;4.60;99.90
21312;DHT22;18076;52.154;10.570;2023-01-16T04:10:04;4.60;99.90
21312;DHT22;18076;52.154;10.570;2023-01-16T04:12:41;4.60;99.90
21312;DHT22;18076;52.154;10.570;2023-01-16T04:15:08;4.70;99.90
21312;DHT22;18076;52.154;10.570;2023-01-16T04:17:34;4.70;99.90
21312;DHT22;18076;52.154;10.570;2023-01-16T04:20:01;4.70;99.90
21312;DHT22;18076;52.154;10.570;2023-01-16T04:22:27;4.70;99.90
21312;DHT22;18076;52.154;10.570;2023-01-16T04:24:53;4.70;99.90
21312;DHT22;18076;52.154;10.570;2023-01-16T04:27:20;4.70;99.90
21312;DHT22;18076;52.154;10.570;2023-01-16T04:29:45;4.80;99.90
21312;DHT22;18076;52.154;10.570;2023-01-16T04:32:11;4.80;99.90
21312;DHT22;18076;52.154;10.570;2023-01-16T04:34:37;4.80;99.90
21312;DHT22;18076;52.154;10.570;2023-01-16T04:37:02;4.70;99.90
21312;DHT22;18076;52.154;10.570;2023-01-16T04:39:28;4.70;99.90
21312;DHT22;18076;52.154;10.570;2023-01-16T04:41:53;4.70;99.90
21312;DHT22;18076;52.154;10.570;2023-01-16T04:44:19;4.70;99.90
21312;DHT22;18076;52.154;10.570;2023-01-16T04:46:45;4.70;99.90
21312;DHT22;18076;52.154;10.570;2023-01-16T04:49:10;4.80;99.90
21312;DHT22;18076;52.154;10.570;2023-01-16T04:51:36;4.80;99.90
21312;DHT22;18076;52.154;10.570;2023-01-16T04:54:05;4.80;99.90
21312;DHT22;18076;52.154;10.570;2023-01-16T04:56:31;4.80;99.90
21312;DHT22;18076;52.154;10.570;2023-01-16T04:58:57;4.90;99.90
21312;DHT22;18076;52.154;10.570;2023-01-16T05:01:23;4.90;99.90
21312;DHT22;18076;52.154;10.570;2023-01-16T05:03:49;4.90;99.90
21312;DHT22;18076;52.154;10.570;2023-01-16T05:06:15;4.90;99.90
21312;DHT22;18076;52.154;10.570;2023-01-16T05:08:41;4.90;99.90
21312;DHT22;18076;52.154;10.570;2023-01-16T05:11:07;4.90;99.90
21312;DHT22;18076;52.154;10.570;2023-01-16T05:13:33;5.00;99.90
21312;DHT22;18076;52.154;10.570;2023-01-16T05:15:58;5.00;99.90
21312;DHT22;18076;52.154;10.570;2023-01-16T05:18:24;5.00;99.90
21312;DHT22;18076;52.154;10.570;2023-01-16T05:20:50;5.00;99.90
21312;DHT22;18076;52.154;10.570;2023-01-16T05:23:15;5.00;99.90
21312;DHT22;18076;52.154;10.570;2023-01-16T05:25:42;4.90;99.90
21312;DHT22;18076;52.154;10.570;2023-01-16T05:28:07;4.90;99.90
21312;DHT22;18076;52.154;10.570;2023-01-16T05:30:33;5.00;99.90
21312;DHT22;18076;52.154;10.570;2023-01-16T05:32:59;5.00;99.90
21312;DHT22;18076;52.154;10.570;2023-01-16T05:35:24;5.00;99.90
21312;DHT22;18076;52.154;10.570;2023-01-16T05:37:50;5.00;99.90
21312;DHT22;18076;52.154;10.570;2023-01-16T05:40:15;5.00;99.90
21312;DHT22;18076;52.154;10.570;2023-01-16T05:42:41;5.00;99.90
21312;DHT22;18076;52.154;10.570;2023-01-16T05:45:07;5.00;99.90
21312;DHT22;18076;52.154;10.570;2023-01-16T05:47:33;5.00;99.90
21312;DHT22;18076;52.154;10.570;2023-01-16T05:49:58;5.00;99.90
21312;DHT22;18076;52.154;10.570;2023-01-16T05:52:24;5.00;99.90
21312;DHT22;18076;52.154;10.570;2023-01-16T05:54:50;5.00;99.90
21312;DHT22;18076;52.154;10.570;2023-01-16T05:57:17;5.00;99.90
21312;DHT22;18076;52.154;10.570;2023-01-16T05:59:43;5.00;99.90
21312;DHT22;18076;52.154;10.570;2023-01-16T06:02:11;5.00;99.90
21312;DHT22;18076;52.154;10.570;2023-01-16T06:04:37;5.00;99.90
21312;DHT22;18076;52.154;10.570;2023-01-16T06:07:03;4.90;99.90
21312;DHT22;18076;52.154;10.570;2023-01-16T06:09:28;4.80;99.90
21312;DHT22;18076;52.154;10.570;2023-01-16T06:11:54;4.80;99.90
21312;DHT22;18076;52.154;10.570;2023-01-16T06:14:20;4.70;99.90
21312;DHT22;18076;52.154;10.570;2023-01-16T06:16:45;4.60;99.90
21312;DHT22;18076;52.154;10.570;2023-01-16T06:19:11;4.50;99.90
21312;DHT22;18076;52.154;10.570;2023-01-16T06:21:36;4.40;99.90
21312;DHT22;18076;52.154;10.570;2023-01-16T06:24:02;4.40;99.90
21312;DHT22;18076;52.154;10.570;2023-01-16T06:26:27;4.40;99.90
21312;DHT22;18076;52.154;10.570;2023-01-16T06:28:53;4.40;99.90
21312;DHT22;18076;52.154;10.570;2023-01-16T06:31:21;4.40;99.90
21312;DHT22;18076;52.154;10.570;2023-01-16T06:33:47;4.40;99.90
21312;DHT22;18076;52.154;10.570;2023-01-16T06:36:13;4.30;99.90
21312;DHT22;18076;52.154;10.570;2023-01-16T06:38:38;4.30;99.90
21312;DHT22;18076;52.154;10.570;2023-01-16T06:41:04;4.30;99.90
21312;DHT22;18076;52.154;10.570;2023-01-16T06:43:29;4.20;99.90
21312;DHT22;18076;52.154;10.570;2023-01-16T06:45:55;4.20;99.90
21312;DHT22;18076;52.154;10.570;2023-01-16T06:48:21;4.10;99.90
21312;DHT22;18076;52.154;10.570;2023-01-16T06:50:46;4.10;99.90
21312;DHT22;18076;52.154;10.570;2023-01-16T06:53:12;4.10;99.90
21312;DHT22;18076;52.154;10.570;2023-01-16T06:55:39;4.00;99.90
21312;DHT22;18076;52.154;10.570;2023-01-16T06:58:05;3.90;99.90
21312;DHT22;18076;52.154;10.570;2023-01-16T07:00:31;3.80;99.90
21312;DHT22;18076;52.154;10.570;2023-01-16T07:02:56;3.70;99.90
21312;DHT22;18076;52.154;10.570;2023-01-16T07:05:23;3.60;99.90
21312;DHT22;18076;52.154;10.570;2023-01-16T07:07:48;3.60;99.90
21312;DHT22;18076;52.154;10.570;2023-01-16T07:10:14;3.50;99.90
21312;DHT22;18076;52.154;10.570;2023-01-16T07:12:40;3.50;99.90
21312;DHT22;18076;52.154;10.570;2023-01-16T07:15:06;3.50;99.90
21312;DHT22;18076;52.154;10.570;2023-01-16T07:17:50;3.50;99.90
21312;DHT22;18076;52.154;10.570;2023-01-16T07:20:34;3.40;99.90
21312;DHT22;18076;52.154;10.570;2023-01-16T07:23:22;3.40;99.90
21312;DHT22;18076;52.154;10.570;2023-01-16T07:25:49;3.30;99.90
21312;DHT22;18076;52.154;10.570;2023-01-16T07:28:16;3.20;99.90
21312;DHT22;18076;52.154;10.570;2023-01-16T07:30:42;3.10;99.90
21312;DHT22;18076;52.154;10.570;2023-01-16T07:33:08;3.10;99.90
21312;DHT22;18076;52.154;10.570;2023-01-16T07:35:34;3.10;99.90
21312;DHT22;18076;52.154;10.570;2023-01-16T07:38:00;3.10;99.90
21312;DHT22;18076;52.154;10.570;2023-01-16T07:40:25;3.00;99.90
21312;DHT22;18076;52.154;10.570;2023-01-16T07:42:51;3.10;99.90
21312;DHT22;18076;52.154;10.570;2023-01-16T07:45:18;3.10;99.90
21312;DHT22;18076;52.154;10.570;2023-01-16T07:47:46;3.10;99.90
21312;DHT22;18076;52.154;10.570;2023-01-16T07:50:12;3.20;99.90
21312;DHT22;18076;52.154;10.570;2023-01-16T07:52:38;3.30;99.90
21312;DHT22;18076;52.154;10.570;2023-01-16T07:55:03;3.30;99.90
21312;DHT22;18076;52.154;10.570;2023-01-16T07:57:29;3.40;99.90
21312;DHT22;18076;52.154;10.570;2023-01-16T07:59:54;3.60;99.90
21312;DHT22;18076;52.154;10.570;2023-01-16T08:02:20;3.70;99.90
21312;DHT22;18076;52.154;10.570;2023-01-16T08:04:46;3.80;99.90
21312;DHT22;18076;52.154;10.570;2023-01-16T08:07:13;3.90;99.90
21312;DHT22;18076;52.154;10.570;2023-01-16T08:09:50;4.00;99.90
21312;DHT22;18076;52.154;10.570;2023-01-16T08:12:15;4.10;99.90
21312;DHT22;18076;52.154;10.570;2023-01-16T08:14:41;4.20;99.90
21312;DHT22;18076;52.154;10.570;2023-01-16T08:17:07;4.20;99.90
21312;DHT22;18076;52.154;10.570;2023-01-16T08:19:33;4.20;99.90
21312;DHT22;18076;52.154;10.570;2023-01-16T08:21:58;4.20;99.90
21312;DHT22;18076;52.154;10.570;2023-01-16T08:24:24;4.20;99.90
21312;DHT22;18076;52.154;10.570;2023-01-16T08:26:51;4.20;99.90
21312;DHT22;18076;52.154;10.570;2023-01-16T08:29:16;4.20;99.90
21312;DHT22;18076;52.154;10.570;2023-01-16T08:31:42;4.30;99.90
21312;DHT22;18076;52.154;10.570;2023-01-16T08:34:08;4.60;99.90
21312;DHT22;18076;52.154;10.570;2023-01-16T08:36:33;5.30;99.90
21312;DHT22;18076;52.154;10.570;2023-01-16T08:38:59;6.60;99.90
21312;DHT22;18076;52.154;10.570;2023-01-16T08:41:25;8.20;99.90
21312;DHT22;18076;52.154;10.570;2023-01-16T08:44:09;9.50;99.90
21312;DHT22;18076;52.154;10.570;2023-01-16T08:46:58;10.60;99.90
21312;DHT22;18076;52.154;10.570;2023-01-16T08:49:45;11.60;99.90
21312;DHT22;18076;52.154;10.570;2023-01-16T08:52:30;12.80;99.90
21312;DHT22;18076;52.154;10.570;2023-01-16T08:54:57;13.20;99.90
21312;DHT22;18076;52.154;10.570;2023-01-16T08:57:23;13.40;99.90
21312;DHT22;18076;52.154;10.570;2023-01-16T08:59:49;13.20;99.90
21312;DHT22;18076;52.154;10.570;2023-01-16T09:02:17;11.80;99.90
21312;DHT22;18076;52.154;10.570;2023-01-16T09:04:44;10.30;99.90
21312;DHT22;18076;52.154;10.570;2023-01-16T09:07:10;9.10;99.90
21312;DHT22;18076;52.154;10.570;2023-01-16T09:09:36;8.30;99.90
21312;DHT22;18076;52.154;10.570;2023-01-16T09:12:01;7.50;99.90
21312;DHT22;18076;52.154;10.570;2023-01-16T09:14:45;7.10;99.90
21312;DHT22;18076;52.154;10.570;2023-01-16T09:17:11;7.10;99.90
21312;DHT22;18076;52.154;10.570;2023-01-16T09:19:37;6.80;99.90
21312;DHT22;18076;52.154;10.570;2023-01-16T09:22:03;6.40;99.90
21312;DHT22;18076;52.154;10.570;2023-01-16T09:24:31;6.00;99.90
21312;DHT22;18076;52.154;10.570;2023-01-16T09:26:57;5.90;99.90
21312;DHT22;18076;52.154;10.570;2023-01-16T09:29:22;5.70;99.90
21312;DHT22;18076;52.154;10.570;2023-01-16T09:31:48;5.60;99.90
21312;DHT22;18076;52.154;10.570;2023-01-16T09:34:14;5.40;99.90
21312;DHT22;18076;52.154;10.570;2023-01-16T09:36:39;5.40;99.90
21312;DHT22;18076;52.154;10.570;2023-01-16T09:39:05;5.30;99.90
21312;DHT22;18076;52.154;10.570;2023-01-16T09:41:32;5.20;99.90
21312;DHT22;18076;52.154;10.570;2023-01-16T09:44:19;5.10;99.90
21312;DHT22;18076;52.154;10.570;2023-01-16T09:46:46;5.10;99.90
21312;DHT22;18076;52.154;10.570;2023-01-16T09:49:21;5.00;99.90
21312;DHT22;18076;52.154;10.570;2023-01-16T09:51:50;5.00;99.90
21312;DHT22;18076;52.154;10.570;2023-01-16T09:54:48;5.00;99.90
21312;DHT22;18076;52.154;10.570;2023-01-16T09:57:34;5.10;99.90
21312;DHT22;18076;52.154;10.570;2023-01-16T10:00:20;5.00;99.90
21312;DHT22;18076;52.154;10.570;2023-01-16T10:02:47;5.10;99.90
21312;DHT22;18076;52.154;10.570;2023-01-16T10:05:12;5.10;99.90
21312;DHT22;18076;52.154;10.570;2023-01-16T10:12:39;5.30;99.90
21312;DHT22;18076;52.154;10.570;2023-01-16T10:17:44;5.50;99.90
21312;DHT22;18076;52.154;10.570;2023-01-16T10:30:28;6.40;99.90
21312;DHT22;18076;52.154;10.570;2023-01-16T10:35:24;6.60;99.90
21312;DHT22;18076;52.154;10.570;2023-01-16T10:37:50;6.60;99.90
21312;DHT22;18076;52.154;10.570;2023-01-16T10:42:43;6.40;99.90
21312;DHT22;18076;52.154;10.570;2023-01-16T10:45:36;6.30;99.90
21312;DHT22;18076;52.154;10.570;2023-01-16T10:48:20;6.50;99.90
21312;DHT22;18076;52.154;10.570;2023-01-16T10:51:05;6.40;99.90
21312;DHT22;18076;52.154;10.570;2023-01-16T10:53:31;6.30;99.90
21312;DHT22;18076;52.154;10.570;2023-01-16T10:55:57;6.30;99.90
21312;DHT22;18076;52.154;10.570;2023-01-16T11:00:59;6.30;99.90
21312;DHT22;18076;52.154;10.570;2023-01-16T11:03:33;6.30;99.90
21312;DHT22;18076;52.154;10.570;2023-01-16T11:06:07;6.30;99.90
21312;DHT22;18076;52.154;10.570;2023-01-16T11:08:33;6.30;99.90
21312;DHT22;18076;52.154;10.570;2023-01-16T11:10:59;6.30;99.90
21312;DHT22;18076;52.154;10.570;2023-01-16T11:13:25;6.30;99.90
21312;DHT22;18076;52.154;10.570;2023-01-16T11:18:55;6.30;99.90
21312;DHT22;18076;52.154;10.570;2023-01-16T11:24:14;6.30;99.90
21312;DHT22;18076;52.154;10.570;2023-01-16T11:26:41;6.40;99.90
21312;DHT22;18076;52.154;10.570;2023-01-16T11:29:08;6.40;99.90
21312;DHT22;18076;52.154;10.570;2023-01-16T11:31:38;6.40;99.90
21312;DHT22;18076;52.154;10.570;2023-01-16T11:34:03;6.40;99.90
21312;DHT22;18076;52.154;10.570;2023-01-16T11:36:36;6.30;99.90
21312;DHT22;18076;52.154;10.570;2023-01-16T11:39:03;6.30;99.90
21312;DHT22;18076;52.154;10.570;2023-01-16T11:41:33;6.20;99.90
21312;DHT22;18076;52.154;10.570;2023-01-16T11:46:50;6.20;99.90
21312;DHT22;18076;52.154;10.570;2023-01-16T11:49:23;6.20;99.90
21312;DHT22;18076;52.154;10.570;2023-01-16T11:51:52;6.30;99.90
21312;DHT22;18076;52.154;10.570;2023-01-16T11:54:18;6.30;99.90
21312;DHT22;18076;52.154;10.570;2023-01-16T11:56:50;6.20;99.90
21312;DHT22;18076;52.154;10.570;2023-01-16T12:04:36;6.30;99.90
21312;DHT22;18076;52.154;10.570;2023-01-16T12:14:45;6.40;99.90
21312;DHT22;18076;52.154;10.570;2023-01-16T12:17:22;6.40;99.90
21312;DHT22;18076;52.154;10.570;2023-01-16T12:26:00;6.40;99.90
21312;DHT22;18076;52.154;10.570;2023-01-16T12:27:58;6.40;99.90
21312;DHT22;18076;52.154;10.570;2023-01-16T12:36:01;6.40;99.90
21312;DHT22;18076;52.154;10.570;2023-01-16T12:38:36;6.50;99.90
21312;DHT22;18076;52.154;10.570;2023-01-16T12:41:11;6.40;99.90
21312;DHT22;18076;52.154;10.570;2023-01-16T12:44:07;6.40;99.90
21312;DHT22;18076;52.154;10.570;2023-01-16T12:56:53;6.30;99.90
21312;DHT22;18076;52.154;10.570;2023-01-16T12:59:27;6.30;99.90
21312;DHT22;18076;52.154;10.570;2023-01-16T13:01:55;6.30;99.90
21312;DHT22;18076;52.154;10.570;2023-01-16T13:04:25;6.30;99.90
21312;DHT22;18076;52.154;10.570;2023-01-16T13:06:55;6.30;99.90
21312;DHT22;18076;52.154;10.570;2023-01-16T13:14:52;6.50;99.90
21312;DHT22;18076;52.154;10.570;2023-01-16T13:17:24;6.50;99.90
21312;DHT22;18076;52.154;10.570;2023-01-16T13:19:51;6.70;99.90
21312;DHT22;18076;52.154;10.570;2023-01-16T13:22:30;6.70;99.90
21312;DHT22;18076;52.154;10.570;2023-01-16T13:27:38;6.80;99.90
21312;DHT22;18076;52.154;10.570;2023-01-16T13:30:05;6.90;99.90
21312;DHT22;18076;52.154;10.570;2023-01-16T13:32:36;6.90;99.90
21312;DHT22;18076;52.154;10.570;2023-01-16T13:42:37;7.20;99.90
21312;DHT22;18076;52.154;10.570;2023-01-16T13:45:15;7.30;99.90
21312;DHT22;18076;52.154;10.570;2023-01-16T13:48:00;7.60;99.90
21312;DHT22;18076;52.154;10.570;2023-01-16T13:50:26;8.00;99.90
21312;DHT22;18076;52.154;10.570;2023-01-16T13:52:53;8.30;99.90
21312;DHT22;18076;52.154;10.570;2023-01-16T13:55:27;8.10;99.90
21312;DHT22;18076;52.154;10.570;2023-01-16T13:58:06;7.80;99.90
21312;DHT22;18076;52.154;10.570;2023-01-16T14:00:32;7.60;99.90
21312;DHT22;18076;52.154;10.570;2023-01-16T14:03:43;7.40;99.90
21312;DHT22;18076;52.154;10.570;2023-01-16T14:05:48;7.30;99.90
21312;DHT22;18076;52.154;10.570;2023-01-16T14:17:05;7.00;99.90
21312;DHT22;18076;52.154;10.570;2023-01-16T14:19:35;6.80;99.90
21312;DHT22;18076;52.154;10.570;2023-01-16T14:22:01;6.60;99.90
21312;DHT22;18076;52.154;10.570;2023-01-16T14:24:37;6.50;99.90
21312;DHT22;18076;52.154;10.570;2023-01-16T14:27:03;6.40;99.90
21312;DHT22;18076;52.154;10.570;2023-01-16T14:29:34;6.30;99.90
21312;DHT22;18076;52.154;10.570;2023-01-16T14:34:28;6.20;99.90
21312;DHT22;18076;52.154;10.570;2023-01-16T14:37:11;6.10;99.90
21312;DHT22;18076;52.154;10.570;2023-01-16T14:39:38;6.10;99.90
21312;DHT22;18076;52.154;10.570;2023-01-16T14:42:26;6.10;99.90
21312;DHT22;18076;52.154;10.570;2023-01-16T14:48:12;6.10;99.90
21312;DHT22;18076;52.154;10.570;2023-01-16T14:51:01;6.10;99.90
21312;DHT22;18076;52.154;10.570;2023-01-16T14:59:36;6.00;99.90
21312;DHT22;18076;52.154;10.570;2023-01-16T15:02:07;6.00;99.90
21312;DHT22;18076;52.154;10.570;2023-01-16T15:07:15;5.90;99.90
21312;DHT22;18076;52.154;10.570;2023-01-16T15:09:41;5.90;99.90
21312;DHT22;18076;52.154;10.570;2023-01-16T15:12:13;5.80;99.90
21312;DHT22;18076;52.154;10.570;2023-01-16T15:14:50;5.70;99.90
21312;DHT22;18076;52.154;10.570;2023-01-16T15:22:51;5.60;99.90
21312;DHT22;18076;52.154;10.570;2023-01-16T15:27:46;5.50;99.90
21312;DHT22;18076;52.154;10.570;2023-01-16T15:30:16;5.50;99.90
21312;DHT22;18076;52.154;10.570;2023-01-16T15:32:59;5.50;99.90
21312;DHT22;18076;52.154;10.570;2023-01-16T15:35:44;5.50;99.90
21312;DHT22;18076;52.154;10.570;2023-01-16T15:38:10;5.40;99.90
21312;DHT22;18076;52.154;10.570;2023-01-16T15:40:39;5.30;99.90
21312;DHT22;18076;52.154;10.570;2023-01-16T15:43:13;5.40;99.90
21312;DHT22;18076;52.154;10.570;2023-01-16T15:51:13;5.30;99.90
21312;DHT22;18076;52.154;10.570;2023-01-16T15:53:42;5.30;99.90
21312;DHT22;18076;52.154;10.570;2023-01-16T15:56:24;5.30;99.90
21312;DHT22;18076;52.154;10.570;2023-01-16T15:58:53;5.40;99.90
21312;DHT22;18076;52.154;10.570;2023-01-16T16:01:29;5.40;99.90
21312;DHT22;18076;52.154;10.570;2023-01-16T16:03:55;5.40;99.90
21312;DHT22;18076;52.154;10.570;2023-01-16T16:06:22;5.40;99.90
21312;DHT22;18076;52.154;10.570;2023-01-16T16:08:49;5.50;99.90
21312;DHT22;18076;52.154;10.570;2023-01-16T16:11:24;5.40;99.90
21312;DHT22;18076;52.154;10.570;2023-01-16T16:14:17;5.40;99.90
21312;DHT22;18076;52.154;10.570;2023-01-16T16:17:02;5.40;99.90
21312;DHT22;18076;52.154;10.570;2023-01-16T16:19:47;5.40;99.90
21312;DHT22;18076;52.154;10.570;2023-01-16T16:22:13;5.40;99.90
21312;DHT22;18076;52.154;10.570;2023-01-16T16:25:05;5.40;99.90
21312;DHT22;18076;52.154;10.570;2023-01-16T16:27:31;5.50;99.90
21312;DHT22;18076;52.154;10.570;2023-01-16T16:29:57;5.40;99.90
21312;DHT22;18076;52.154;10.570;2023-01-16T16:32:23;5.40;99.90
21312;DHT22;18076;52.154;10.570;2023-01-16T16:34:53;5.40;99.90
21312;DHT22;18076;52.154;10.570;2023-01-16T16:37:18;5.40;99.90
21312;DHT22;18076;52.154;10.570;2023-01-16T16:39:47;5.40;99.90
21312;DHT22;18076;52.154;10.570;2023-01-16T16:49:58;5.30;99.90
21312;DHT22;18076;52.154;10.570;2023-01-16T16:54:56;5.20;99.90
21312;DHT22;18076;52.154;10.570;2023-01-16T16:57:22;5.30;99.90
21312;DHT22;18076;52.154;10.570;2023-01-16T16:59:48;5.30;99.90
21312;DHT22;18076;52.154;10.570;2023-01-16T17:02:17;5.30;99.90
21312;DHT22;18076;52.154;10.570;2023-01-16T17:04:43;5.20;99.90
21312;DHT22;18076;52.154;10.570;2023-01-16T17:07:08;5.20;99.90
21312;DHT22;18076;52.154;10.570;2023-01-16T17:09:34;5.20;99.90
21312;DHT22;18076;52.154;10.570;2023-01-16T17:12:08;5.10;99.90
21312;DHT22;18076;52.154;10.570;2023-01-16T17:14:36;5.00;99.90
21312;DHT22;18076;52.154;10.570;2023-01-16T17:17:01;5.10;99.90
21312;DHT22;18076;52.154;10.570;2023-01-16T17:19:30;5.10;99.90
21312;DHT22;18076;52.154;10.570;2023-01-16T17:21:56;5.10;99.90
21312;DHT22;18076;52.154;10.570;2023-01-16T17:24:22;5.10;99.90
21312;DHT22;18076;52.154;10.570;2023-01-16T17:26:48;5.10;99.90
21312;DHT22;18076;52.154;10.570;2023-01-16T17:29:13;5.10;99.90
21312;DHT22;18076;52.154;10.570;2023-01-16T17:31:42;5.10;99.90
21312;DHT22;18076;52.154;10.570;2023-01-16T17:34:15;5.10;99.90
21312;DHT22;18076;52.154;10.570;2023-01-16T17:36:41;5.00;99.90
21312;DHT22;18076;52.154;10.570;2023-01-16T17:39:07;5.00;99.90
21312;DHT22;18076;52.154;10.570;2023-01-16T17:41:37;4.90;99.90
21312;DHT22;18076;52.154;10.570;2023-01-16T17:44:23;4.90;99.90
21312;DHT22;18076;52.154;10.570;2023-01-16T17:47:08;4.90;99.90
21312;DHT22;18076;52.154;10.570;2023-01-16T17:49:34;4.80;99.90
21312;DHT22;18076;52.154;10.570;2023-01-16T17:52:23;4.80;99.90
21312;DHT22;18076;52.154;10.570;2023-01-16T17:54:49;4.80;99.90
21312;DHT22;18076;52.154;10.570;2023-01-16T17:57:33;4.90;99.90
21312;DHT22;18076;52.154;10.570;2023-01-16T17:59:59;4.80;99.90
21312;DHT22;18076;52.154;10.570;2023-01-16T18:02:27;4.80;99.90
21312;DHT22;18076;52.154;10.570;2023-01-16T18:04:53;4.80;99.90
21312;DHT22;18076;52.154;10.570;2023-01-16T18:07:18;4.80;99.90
21312;DHT22;18076;52.154;10.570;2023-01-16T18:09:44;4.80;99.90
21312;DHT22;18076;52.154;10.570;2023-01-16T18:12:12;4.80;99.90
21312;DHT22;18076;52.154;10.570;2023-01-16T18:14:56;4.70;99.90
21312;DHT22;18076;52.154;10.570;2023-01-16T18:17:40;4.60;99.90
21312;DHT22;18076;52.154;10.570;2023-01-16T18:20:06;4.60;99.90
21312;DHT22;18076;52.154;10.570;2023-01-16T18:22:33;4.60;99.90
21312;DHT22;18076;52.154;10.570;2023-01-16T18:25:01;4.60;99.90
21312;DHT22;18076;52.154;10.570;2023-01-16T18:27:27;4.70;99.90
21312;DHT22;18076;52.154;10.570;2023-01-16T18:29:53;4.60;99.90
21312;DHT22;18076;52.154;10.570;2023-01-16T18:32:19;4.70;99.90
21312;DHT22;18076;52.154;10.570;2023-01-16T18:34:45;4.70;99.90
21312;DHT22;18076;52.154;10.570;2023-01-16T18:37:11;4.70;99.90
21312;DHT22;18076;52.154;10.570;2023-01-16T18:39:37;4.80;99.90
21312;DHT22;18076;52.154;10.570;2023-01-16T18:42:21;4.80;99.90
21312;DHT22;18076;52.154;10.570;2023-01-16T18:45:05;4.90;99.90